Observations for NORWICH WEA CNTRE, United Kingdom (EGSH)

EGSH 211750Z 15011KT 5000 RA BKN005 OVC006 03/02 Q1008 RESN TEMPO 3000 BKN004   
EGSH 211720Z 15011KT 120V190 6000 -RASN BKN007 OVC010 02/02 Q1009 RESN RERA TEMPO 4000 RADZ BKN004  
EGSH 211650Z 16010KT 4000 RASN OVC005 02/01 Q1009 TEMPO 1200 BKN004 
EGSH 211620Z 17012KT 5000 RA BKN006 02/01 Q1010 TEMPO 3000 RADZ BKN003  
EGSH 211550Z 17010KT 6000 -RA BKN006 02/01 Q1011 TEMPO 3000 RADZ BKN003 
EGSH 211520Z 16009KT 120V200 5000 -RA BR BKN006 OVC008 02/01 Q1011 TEMPO 1200 RADZ BKN001   
EGSH 211450Z 17008KT 150V210 5000 -RASN BR BKN006 OVC008 02/01 Q1012 TEMPO 1200 RADZ BKN001 
EGSH 211420Z 19008KT 150V220 5000 -RASN BR BKN006 OVC008 02/01 Q1012 TEMPO 1200 SNRA BKN002 
EGSH 211350Z 18007KT 150V210 5000 BR BKN010 02/01 Q1012 TEMPO 0700 SNRA BKN004  
EGSH 211320Z 18006KT 150V220 5000 BR BKN010 02/01 Q1013 TEMPO 0700 SNRA BKN001  
EGSH 211250Z 20005KT 5000 BR NSC 01/01 Q1014 TEMPO 0700 SNRA BKN001 
EGSH 211220Z 20004KT 3000 BR FEW003 01/01 Q1014 TEMPO 0700 RASN BKN001  
EGSH 211150Z 21004KT 3000 BR FEW003 01/00 Q1014 TEMPO 1200 RASN BKN003  
EGSH 211120Z 22003KT 3000 BR FEW004 01/00 Q1015 TEMPO 1400 RASN BKN004  
EGSH 211050Z 21005KT 4000 BR NSC 01/00 Q1014 TEMPO 1200 RASN BKN004 
EGSH 211020Z 23006KT 4000 BR NSC 00/M00 Q1015 TEMPO 1200 RASN BKN004
EGSH 210950Z 22008KT 4000 BR NSC 00/00 Q1014 BECMG 7000 NSW 
EGSH 210920Z 22005KT 4500 BR NSC 00/M00 Q1015 BECMG 7000 NSW
EGSH 210850Z 24007KT 4500 BR NSC M00/M00 Q1015 BECMG 7000 NSW   
EGSH 210820Z 24004KT 4500 BR NSC M00/M01 Q1015 BECMG 7000 NSW   
EGSH 210750Z 25005KT 5000 BR NSC M01/M01 Q1014 TEMPO RADZ   
EGSH 210720Z 24005KT 9000 NSC M01/M01 Q1014 TEMPO 4000 BR   
EGSH 210650Z VRB02KT 9000 NSC M01/M01 Q1014 TEMPO 4000 BR   
EGSH 210620Z 25005KT CAVOK M01/M01 Q1014 NOSIG  
EGSH 210550Z 25004KT CAVOK M01/M02 Q1014 NOSIG  
EGSH 210520Z AUTO 25005KT 9999 NCD M01/M02 Q1013
EGSH 210450Z AUTO 25006KT 9999 NCD M01/M01 Q1013
EGSH 210420Z AUTO 26005KT 9999 NCD M01/M02 Q1013
EGSH 210350Z AUTO 28006KT 9999 NCD M01/M01 Q1013
EGSH 210320Z AUTO 27006KT 9999 NCD M01/M01 Q1012
EGSH 210250Z AUTO 28006KT 9999 NCD M00/M01 Q1012
EGSH 210220Z AUTO 28007KT 9999 NCD M00/M01 Q1012
EGSH 210150Z AUTO 28007KT 9999 NCD M00/M01 Q1011
EGSH 210120Z AUTO 28008KT 9999 NCD 00/M00 Q1011 
EGSH 210050Z AUTO 28007KT 9999 NCD 00/M00 Q1010 
EGSH 210020Z AUTO 29007KT 9999 NCD 01/00 Q1010  
EGSH 202350Z AUTO 29006KT 7000 NCD 00/00 Q1009  
EGSH 202320Z AUTO 29006KT 8000 NCD 01/00 Q1008  
EGSH 202250Z AUTO 29006KT 5000 BR NCD 01/01 Q1008   
EGSH 202220Z AUTO 28006KT 4300 BR NCD 00/M00 Q1007  
EGSH 202150Z AUTO 28006KT 5000 BR NCD 01/00 Q1007   
EGSH 202120Z 29007KT 6000 NSC 01/01 Q1006 TEMPO 4000 BR 
EGSH 202020Z 29007KT 9000 FEW014 02/01 Q1005 NOSIG  
EGSH 201950Z 29005KT 9999 SCT010 BKN014 02/01 Q1004 BECMG SCT012
EGSH 201920Z VRB03KT 9999 SCT009 02/01 Q1003 NOSIG  
EGSH 201850Z 31004KT 280V350 9999 BKN006 02/02 Q1003 NOSIG  
EGSH 201820Z 30004KT 9999 FEW035 02/01 Q1002 NOSIG  
EGSH 201750Z VRB03KT 9999 FEW010 02/01 Q1002 NOSIG  
EGSH 201720Z 32003KT 9999 FEW018 SCT029 02/02 Q1001 NOSIG